Time;durP1;ratioP1;P1;durP2;ratioP2;P2;SDS_P1;SDS_P2;PMS_P1;PMS_P2;Temp;Humidity;BMP_temperature;BMP_pressure;BME280_temperature;BME280_humidity;BME280_pressure;Samples;Min_cycle;Max_cycle;Signal;HPM_P1;HPM_P2
2022/02/15 00:02:11;;;;;;;;;32.25;28.50;;;;;;;;5018928;28;51159;-49
2022/02/15 00:04:57;;;;;;;;;41.00;32.25;;;;;;;;5013235;28;50951;-52
2022/02/15 00:08:02;;;;;;;;;36.25;32.25;;;;;;;;5010032;28;51231;-52
2022/02/15 00:10:47;;;;;;;;;35.75;29.00;;;;;;;;5006280;28;51155;-49
2022/02/15 00:13:32;;;;;;;;;34.25;30.00;;;;;;;;5009423;28;51545;-50
2022/02/15 00:16:18;;;;;;;;;34.50;30.50;;;;;;;;5016616;28;51182;-49
2022/02/15 00:19:14;;;;;;;;;38.75;28.75;;;;;;;;5018814;28;51468;-51
2022/02/15 00:22:00;;;;;;;;;43.75;30.25;;;;;;;;5005857;28;51179;-49
2022/02/15 00:24:46;;;;;;;;;34.50;30.75;;;;;;;;5019472;28;51663;-49
2022/02/15 00:27:37;;;;;;;;;39.25;30.25;;;;;;;;5010178;28;51152;-49
2022/02/15 00:30:22;;;;;;;;;38.00;31.00;;;;;;;;5015721;28;51115;-50
2022/02/15 00:33:12;;;;;;;;;41.00;32.00;;;;;;;;5011860;28;51085;-50
2022/02/15 00:36:02;;;;;;;;;33.25;30.00;;;;;;;;5013715;28;51251;-51
2022/02/15 00:38:48;;;;;;;;;34.00;28.75;;;;;;;;5011793;28;51215;-50
2022/02/15 00:41:36;;;;;;;;;39.00;30.25;;;;;;;;5017605;28;51101;-51
2022/02/15 00:44:23;;;;;;;;;33.50;26.50;;;;;;;;5016016;28;51187;-53
2022/02/15 00:47:08;;;;;;;;;37.00;29.25;;;;;;;;5015431;28;51056;-50
2022/02/15 00:49:56;;;;;;;;;36.75;29.50;;;;;;;;5016183;28;51315;-52
2022/02/15 00:52:40;;;;;;;;;37.00;30.50;;;;;;;;4996065;28;51234;-50
2022/02/15 00:55:27;;;;;;;;;34.75;30.00;;;;;;;;5004332;28;51562;-50
2022/02/15 00:58:11;;;;;;;;;40.50;31.50;;;;;;;;5016608;28;51188;-52
2022/02/15 01:00:58;;;;;;;;;34.75;28.50;;;;;;;;5008946;28;51188;-52
2022/02/15 01:03:42;;;;;;;;;38.00;30.00;;;;;;;;5009802;28;51601;-50
2022/02/15 01:06:31;;;;;;;;;29.25;25.25;;;;;;;;5010564;28;51631;-51
2022/02/15 01:09:16;;;;;;;;;36.75;29.00;;;;;;;;5004854;28;51372;-52
2022/02/15 01:12:08;;;;;;;;;32.00;27.50;;;;;;;;5013282;28;51123;-51
2022/02/15 01:14:55;;;;;;;;;38.00;30.50;;;;;;;;5005692;28;51757;-50
2022/02/15 01:17:46;;;;;;;;;32.75;29.00;;;;;;;;5007637;28;51273;-50
2022/02/15 01:20:30;;;;;;;;;29.75;29.25;;;;;;;;5008475;28;51287;-51
2022/02/15 01:23:18;;;;;;;;;27.25;26.50;;;;;;;;5010698;28;51171;-50
2022/02/15 01:26:03;;;;;;;;;39.25;29.25;;;;;;;;5009870;28;51287;-51
2022/02/15 01:28:47;;;;;;;;;33.25;26.25;;;;;;;;5008589;28;51204;-52
2022/02/15 01:31:32;;;;;;;;;33.50;31.25;;;;;;;;5004764;28;51148;-52
2022/02/15 01:34:18;;;;;;;;;39.50;29.00;;;;;;;;4999456;28;51046;-52
2022/02/15 01:37:03;;;;;;;;;31.50;28.00;;;;;;;;5002806;28;51105;-50
2022/02/15 01:39:48;;;;;;;;;34.00;29.25;;;;;;;;5016836;28;51601;-52
2022/02/15 01:42:34;;;;;;;;;32.50;28.25;;;;;;;;5016144;28;51195;-51
2022/02/15 01:45:20;;;;;;;;;32.75;28.00;;;;;;;;5013921;28;52033;-53
2022/02/15 01:48:04;;;;;;;;;31.75;24.75;;;;;;;;5009863;28;51431;-53
2022/02/15 01:50:51;;;;;;;;;34.75;29.75;;;;;;;;5011641;28;51231;-49
2022/02/15 01:53:57;;;;;;;;;33.25;27.25;;;;;;;;5010966;28;51136;-50
2022/02/15 01:56:42;;;;;;;;;43.00;31.00;;;;;;;;4998856;28;51192;-53
2022/02/15 01:59:55;;;;;;;;;33.25;30.75;;;;;;;;4999164;28;51160;-50
2022/02/15 02:02:57;;;;;;;;;30.75;27.50;;;;;;;;5012689;28;51171;-51
2022/02/15 02:05:50;;;;;;;;;34.00;25.00;;;;;;;;5018499;28;51225;-51
2022/02/15 02:08:35;;;;;;;;;35.50;29.50;;;;;;;;5018657;28;51128;-48
2022/02/15 02:11:20;;;;;;;;;35.00;30.25;;;;;;;;5004512;28;51096;-52
2022/02/15 02:14:16;;;;;;;;;41.00;30.75;;;;;;;;5008343;28;51138;-52
2022/02/15 02:17:02;;;;;;;;;37.25;29.75;;;;;;;;5006733;28;51172;-52
2022/02/15 02:19:47;;;;;;;;;31.75;27.00;;;;;;;;5002631;28;51082;-52
2022/02/15 02:22:31;;;;;;;;;30.00;27.00;;;;;;;;5012913;28;51096;-52
2022/02/15 02:25:18;;;;;;;;;28.75;23.25;;;;;;;;5006478;28;51053;-51
2022/02/15 02:28:12;;;;;;;;;33.50;28.50;;;;;;;;5004425;28;51129;-53
2022/02/15 02:30:57;;;;;;;;;35.25;31.00;;;;;;;;5003943;28;51196;-51
2022/02/15 02:33:42;;;;;;;;;33.00;29.50;;;;;;;;5000756;28;51298;-49
2022/02/15 02:36:26;;;;;;;;;34.00;28.25;;;;;;;;5008919;28;51047;-52
2022/02/15 02:39:15;;;;;;;;;34.00;29.25;;;;;;;;5011719;28;51101;-49
2022/02/15 02:42:01;;;;;;;;;36.00;27.50;;;;;;;;5021727;28;51247;-53
2022/02/15 02:44:47;;;;;;;;;35.50;29.75;;;;;;;;5021544;28;51696;-51
2022/02/15 02:47:31;;;;;;;;;35.75;29.75;;;;;;;;5007089;28;51109;-52
2022/02/15 02:50:17;;;;;;;;;37.00;31.50;;;;;;;;5006478;28;51135;-50
2022/02/15 02:53:11;;;;;;;;;37.25;27.75;;;;;;;;5003021;28;51110;-48
2022/02/15 02:56:01;;;;;;;;;36.75;31.25;;;;;;;;5002853;28;51668;-48
2022/02/15 02:58:51;;;;;;;;;32.50;28.00;;;;;;;;5015495;28;51180;-51
2022/02/15 03:01:46;;;;;;;;;37.00;31.50;;;;;;;;5015463;28;51034;-51
2022/02/15 03:04:30;;;;;;;;;35.25;27.25;;;;;;;;5002921;28;51609;-49
2022/02/15 03:07:14;;;;;;;;;36.00;30.50;;;;;;;;5018739;28;51970;-50
2022/02/15 03:09:59;;;;;;;;;32.00;27.00;;;;;;;;5021769;28;51589;-52
2022/02/15 03:12:45;;;;;;;;;39.50;29.75;;;;;;;;5021917;28;51367;-52
2022/02/15 03:15:35;;;;;;;;;38.75;28.25;;;;;;;;5021758;28;51078;-50
2022/02/15 03:18:31;;;;;;;;;41.00;31.50;;;;;;;;5021564;28;51134;-51
2022/02/15 03:21:17;;;;;;;;;37.25;31.00;;;;;;;;5000985;28;51077;-50
2022/02/15 03:24:01;;;;;;;;;34.50;29.00;;;;;;;;5002426;28;51145;-50
2022/02/15 03:26:45;;;;;;;;;34.50;31.25;;;;;;;;5022130;28;51079;-51
2022/02/15 03:30:02;;;;;;;;;33.75;28.75;;;;;;;;5021617;28;51150;-50
2022/02/15 03:32:47;;;;;;;;;37.25;31.25;;;;;;;;5021325;28;51053;-51
2022/02/15 03:35:32;;;;;;;;;36.00;30.25;;;;;;;;5011473;28;51618;-52
2022/02/15 03:38:18;;;;;;;;;33.75;29.25;;;;;;;;5001766;28;51096;-52
2022/02/15 03:44:07;;;;;;;;;31.00;29.75;;;;;;;;5012218;28;51139;-49
2022/02/15 03:46:52;;;;;;;;;43.75;32.25;;;;;;;;5013567;28;51070;-52
2022/02/15 03:49:37;;;;;;;;;30.75;24.25;;;;;;;;5003173;28;51288;-49
2022/02/15 03:52:24;;;;;;;;;37.50;32.50;;;;;;;;5014982;28;51328;-50
2022/02/15 03:55:09;;;;;;;;;34.00;27.75;;;;;;;;5020679;28;51457;-50
2022/02/15 03:58:06;;;;;;;;;39.75;31.50;;;;;;;;5012382;28;51277;-50
2022/02/15 04:00:50;;;;;;;;;38.25;31.50;;;;;;;;5021243;28;51717;-49
2022/02/15 04:03:43;;;;;;;;;30.50;24.75;;;;;;;;5019896;28;51145;-49
2022/02/15 04:06:27;;;;;;;;;38.00;30.25;;;;;;;;5018265;28;51199;-51
2022/02/15 04:09:22;;;;;;;;;34.25;30.00;;;;;;;;5013233;28;51103;-52
2022/02/15 04:12:08;;;;;;;;;35.00;29.75;;;;;;;;5015370;28;51144;-52
2022/02/15 04:14:53;;;;;;;;;40.75;31.75;;;;;;;;5005014;28;51199;-50
2022/02/15 04:17:37;;;;;;;;;35.00;31.75;;;;;;;;5012812;28;51129;-50
2022/02/15 04:20:23;;;;;;;;;34.00;29.00;;;;;;;;5007018;28;51542;-53
2022/02/15 04:23:12;;;;;;;;;39.00;30.75;;;;;;;;5004412;28;51134;-49
2022/02/15 04:26:08;;;;;;;;;35.75;28.50;;;;;;;;5011127;28;51700;-51
2022/02/15 04:28:53;;;;;;;;;39.00;31.25;;;;;;;;5012423;28;51152;-48
2022/02/15 04:31:38;;;;;;;;;37.00;30.50;;;;;;;;5001829;28;51624;-50
2022/02/15 04:34:22;;;;;;;;;34.75;30.00;;;;;;;;4996020;28;51123;-51
2022/02/15 04:37:10;;;;;;;;;35.75;29.50;;;;;;;;5017126;28;51236;-49
2022/02/15 04:40:06;;;;;;;;;36.75;31.75;;;;;;;;5016038;28;51228;-50
2022/02/15 04:42:52;;;;;;;;;34.75;29.25;;;;;;;;5013281;28;51159;-50
2022/02/15 04:45:47;;;;;;;;;37.50;31.25;;;;;;;;5014844;28;51117;-49
2022/02/15 04:48:31;;;;;;;;;41.75;32.25;;;;;;;;5005583;28;51230;-51
2022/02/15 04:51:17;;;;;;;;;36.50;31.50;;;;;;;;5000708;28;51603;-52
2022/02/15 04:54:02;;;;;;;;;40.00;28.25;;;;;;;;5014721;28;51116;-52
2022/02/15 04:56:48;;;;;;;;;35.75;31.00;;;;;;;;5004398;28;51515;-51
2022/02/15 04:59:35;;;;;;;;;33.00;27.75;;;;;;;;5007271;28;51200;-51
2022/02/15 05:02:21;;;;;;;;;36.25;29.75;;;;;;;;5008480;28;51616;-53
2022/02/15 05:05:05;;;;;;;;;40.75;33.00;;;;;;;;5007321;28;51866;-50
2022/02/15 05:07:49;;;;;;;;;34.75;30.00;;;;;;;;5002584;28;51105;-50
2022/02/15 05:10:34;;;;;;;;;38.75;32.00;;;;;;;;5001933;28;51509;-51
2022/02/15 05:13:21;;;;;;;;;44.00;33.75;;;;;;;;5000941;28;51461;-52
2022/02/15 05:16:06;;;;;;;;;39.25;32.00;;;;;;;;5003336;28;52744;-51
2022/02/15 05:18:51;;;;;;;;;34.50;29.25;;;;;;;;5002273;28;51036;-53
2022/02/15 05:21:35;;;;;;;;;37.50;32.00;;;;;;;;5012904;28;51400;-51
2022/02/15 05:24:20;;;;;;;;;38.00;32.25;;;;;;;;5004229;28;51191;-50
2022/02/15 05:27:05;;;;;;;;;41.50;30.75;;;;;;;;5013871;28;51303;-51
2022/02/15 05:29:50;;;;;;;;;37.50;31.00;;;;;;;;5013932;28;51098;-52
2022/02/15 05:32:35;;;;;;;;;33.50;30.75;;;;;;;;4999690;28;51102;-53
2022/02/15 05:35:19;;;;;;;;;39.00;32.00;;;;;;;;5017808;28;51060;-52
2022/02/15 05:38:07;;;;;;;;;41.00;32.25;;;;;;;;5008322;28;51203;-52
2022/02/15 05:40:51;;;;;;;;;44.50;31.75;;;;;;;;5002601;28;51672;-51
2022/02/15 05:43:36;;;;;;;;;41.50;33.50;;;;;;;;4999448;28;51109;-49
2022/02/15 05:46:26;;;;;;;;;43.75;34.75;;;;;;;;5005904;28;51198;-50
2022/02/15 05:49:11;;;;;;;;;45.00;33.25;;;;;;;;5002096;28;51152;-48
2022/02/15 05:51:56;;;;;;;;;41.50;31.00;;;;;;;;5013539;28;50993;-51
2022/02/15 05:54:47;;;;;;;;;42.25;34.25;;;;;;;;5001741;28;51093;-52
2022/02/15 05:57:32;;;;;;;;;43.75;34.25;;;;;;;;5001573;28;51065;-52
2022/02/15 06:00:17;;;;;;;;;43.00;33.50;;;;;;;;5002961;28;51197;-52
2022/02/15 06:03:01;;;;;;;;;38.50;31.00;;;;;;;;5012712;28;51304;-51
2022/02/15 06:06:05;;;;;;;;;37.75;31.25;;;;;;;;5015703;28;51627;-51
2022/02/15 06:08:51;;;;;;;;;40.75;34.00;;;;;;;;5007086;28;51108;-51
2022/02/15 06:11:37;;;;;;;;;32.00;27.00;;;;;;;;5007792;28;51045;-50
2022/02/15 06:14:21;;;;;;;;;44.75;32.75;;;;;;;;5001696;28;51116;-53
2022/02/15 06:17:14;;;;;;;;;45.25;32.50;;;;;;;;5016781;28;51497;-53
2022/02/15 06:20:01;;;;;;;;;35.75;30.50;;;;;;;;5001391;28;51059;-50
2022/02/15 06:22:47;;;;;;;;;41.50;33.75;;;;;;;;5011306;28;51019;-51
2022/02/15 06:25:35;;;;;;;;;43.75;35.25;;;;;;;;5018534;28;51452;-52
2022/02/15 06:28:28;;;;;;;;;42.50;34.00;;;;;;;;5002298;28;51191;-49
2022/02/15 06:31:32;;;;;;;;;45.75;33.25;;;;;;;;5010049;28;51237;-49
2022/02/15 06:34:17;;;;;;;;;42.25;33.25;;;;;;;;5018592;28;51201;-49
2022/02/15 06:37:01;;;;;;;;;40.00;34.50;;;;;;;;5009304;28;51180;-52
2022/02/15 06:39:47;;;;;;;;;30.75;29.50;;;;;;;;5018330;28;51053;-50
2022/02/15 06:42:33;;;;;;;;;39.75;32.00;;;;;;;;5002791;28;51121;-51
2022/02/15 06:45:19;;;;;;;;;45.25;33.00;;;;;;;;4998765;28;51145;-50
2022/02/15 06:48:24;;;;;;;;;38.25;31.50;;;;;;;;5000405;28;51049;-51
2022/02/15 06:51:10;;;;;;;;;25.75;17.50;;;;;;;;5001887;28;51156;-50
2022/02/15 06:53:56;;;;;;;;;43.25;33.00;;;;;;;;5018122;28;51149;-52
2022/02/15 06:56:44;;;;;;;;;42.50;32.00;;;;;;;;5018454;28;51009;-52
2022/02/15 06:59:29;;;;;;;;;42.00;33.25;;;;;;;;5002626;28;51089;-52
2022/02/15 07:02:13;;;;;;;;;46.75;33.50;;;;;;;;5018368;28;52083;-52
2022/02/15 07:04:58;;;;;;;;;39.50;32.75;;;;;;;;5017316;28;51051;-52
2022/02/15 07:07:43;;;;;;;;;43.25;31.50;;;;;;;;5013540;28;51455;-51
2022/02/15 07:10:27;;;;;;;;;43.25;32.25;;;;;;;;5016015;28;51229;-51
2022/02/15 07:13:12;;;;;;;;;38.25;32.50;;;;;;;;5021532;28;51172;-51
2022/02/15 07:15:56;;;;;;;;;39.00;31.25;;;;;;;;5012702;28;51196;-52
2022/02/15 07:18:43;;;;;;;;;41.00;32.75;;;;;;;;5005543;28;51209;-53
2022/02/15 07:21:41;;;;;;;;;37.50;32.00;;;;;;;;5018562;28;51117;-49
2022/02/15 07:24:27;;;;;;;;;43.00;34.50;;;;;;;;5004880;28;51090;-51
2022/02/15 07:27:11;;;;;;;;;46.75;36.75;;;;;;;;5004499;28;51495;-49
2022/02/15 07:29:59;;;;;;;;;36.25;30.50;;;;;;;;5010251;28;53013;-51
2022/02/15 07:33:03;;;;;;;;;35.50;31.25;;;;;;;;5012355;28;51782;-49
2022/02/15 07:35:48;;;;;;;;;41.00;33.00;;;;;;;;5003241;28;51030;-51
2022/02/15 07:38:33;;;;;;;;;35.75;31.00;;;;;;;;5013584;28;51186;-50
2022/02/15 07:41:17;;;;;;;;;40.50;31.75;;;;;;;;5018920;28;51171;-52
2022/02/15 07:44:01;;;;;;;;;40.25;33.25;;;;;;;;5016172;28;51007;-54
2022/02/15 07:46:47;;;;;;;;;30.00;28.50;;;;;;;;5013039;28;51142;-50
2022/02/15 07:49:33;;;;;;;;;34.75;28.25;;;;;;;;5007603;28;51058;-51
2022/02/15 07:52:37;;;;;;;;;33.75;31.25;;;;;;;;5011429;28;51453;-50
2022/02/15 07:55:21;;;;;;;;;34.75;28.25;;;;;;;;5009208;28;51125;-48
2022/02/15 07:58:06;;;;;;;;;36.75;29.75;;;;;;;;5014961;28;51559;-50
2022/02/15 08:00:50;;;;;;;;;37.50;30.50;;;;;;;;5020530;28;51153;-49
2022/02/15 08:03:34;;;;;;;;;40.25;30.75;;;;;;;;5001699;28;51062;-50
2022/02/15 08:06:19;;;;;;;;;33.25;30.50;;;;;;;;5015404;28;51206;-48
2022/02/15 08:09:03;;;;;;;;;32.50;29.00;;;;;;;;5020292;28;51284;-51
2022/02/15 08:11:54;;;;;;;;;30.00;25.00;;;;;;;;5013779;28;51160;-48
2022/02/15 08:14:40;;;;;;;;;34.50;27.75;;;;;;;;5008200;28;51309;-48
2022/02/15 08:17:28;;;;;;;;;32.75;30.00;;;;;;;;5014586;28;51520;-47
2022/02/15 08:20:14;;;;;;;;;36.50;29.50;;;;;;;;5010125;28;51097;-48
2022/02/15 08:23:02;;;;;;;;;31.00;27.75;;;;;;;;5014756;28;51541;-46
2022/02/15 08:25:54;;;;;;;;;41.25;29.25;;;;;;;;5017309;28;51184;-49
2022/02/15 08:28:44;;;;;;;;;30.25;27.00;;;;;;;;5013955;28;51147;-52
2022/02/15 08:31:28;;;;;;;;;30.75;27.75;;;;;;;;5015210;28;51318;-47
2022/02/15 08:34:15;;;;;;;;;11.00;9.50;;;;;;;;5012964;28;51184;-52
2022/02/15 08:37:02;;;;;;;;;31.00;27.00;;;;;;;;5008114;28;51208;-51
2022/02/15 08:39:48;;;;;;;;;30.75;28.00;;;;;;;;5015623;28;51132;-52
2022/02/15 08:42:39;;;;;;;;;29.00;26.25;;;;;;;;5012683;28;51132;-51
2022/02/15 08:45:23;;;;;;;;;32.25;26.75;;;;;;;;5011086;28;51283;-49
2022/02/15 08:48:11;;;;;;;;;35.50;28.25;;;;;;;;5011606;28;51213;-49
2022/02/15 08:51:18;;;;;;;;;29.75;24.50;;;;;;;;5013752;28;51147;-48
2022/02/15 08:54:02;;;;;;;;;24.50;23.00;;;;;;;;5016181;28;51186;-49
2022/02/15 08:56:47;;;;;;;;;32.00;26.50;;;;;;;;5015571;28;51030;-49
2022/02/15 08:59:32;;;;;;;;;31.75;27.25;;;;;;;;5017015;28;51050;-48
2022/02/15 09:02:18;;;;;;;;;29.25;23.50;;;;;;;;5014963;28;51102;-51
2022/02/15 09:05:09;;;;;;;;;34.00;27.50;;;;;;;;5015269;28;51184;-48
2022/02/15 09:08:05;;;;;;;;;28.25;25.50;;;;;;;;5011697;28;51061;-51
2022/02/15 09:10:52;;;;;;;;;31.25;27.50;;;;;;;;5011431;28;51162;-51
2022/02/15 09:13:38;;;;;;;;;31.75;28.00;;;;;;;;5016791;28;51469;-48
2022/02/15 09:16:24;;;;;;;;;30.25;26.50;;;;;;;;5001635;28;51175;-49
2022/02/15 09:19:11;;;;;;;;;29.00;27.00;;;;;;;;5010687;28;51194;-49
2022/02/15 09:21:56;;;;;;;;;31.25;27.25;;;;;;;;5017415;28;51575;-51
2022/02/15 09:24:45;;;;;;;;;32.00;25.50;;;;;;;;5013656;28;51162;-49
2022/02/15 09:27:30;;;;;;;;;27.75;24.50;;;;;;;;5010782;28;51237;-52
2022/02/15 09:30:36;;;;;;;;;35.25;26.25;;;;;;;;5009694;28;51073;-48
2022/02/15 09:33:39;;;;;;;;;35.25;27.25;;;;;;;;5014576;28;51353;-51
2022/02/15 09:36:24;;;;;;;;;31.50;25.50;;;;;;;;5015451;28;51169;-51
2022/02/15 09:39:09;;;;;;;;;31.25;26.50;;;;;;;;5010302;28;51516;-47
2022/02/15 09:41:54;;;;;;;;;31.50;25.75;;;;;;;;5010247;28;51139;-51
2022/02/15 09:44:44;;;;;;;;;29.75;23.75;;;;;;;;5006649;28;51274;-48
2022/02/15 09:47:28;;;;;;;;;28.75;25.75;;;;;;;;5010695;28;51144;-48
2022/02/15 09:50:14;;;;;;;;;26.50;23.75;;;;;;;;5013055;28;51758;-51
2022/02/15 09:52:59;;;;;;;;;29.25;26.50;;;;;;;;5011818;28;51195;-49
2022/02/15 09:55:49;;;;;;;;;29.50;26.00;;;;;;;;5015701;28;51010;-49
2022/02/15 09:58:36;;;;;;;;;34.25;26.75;;;;;;;;5012157;28;51183;-48
2022/02/15 10:01:21;;;;;;;;;27.50;25.00;;;;;;;;5013969;28;51189;-49
2022/02/15 10:04:12;;;;;;;;;34.50;28.25;;;;;;;;4998086;28;51150;-51
2022/02/15 10:09:51;;;;;;;;;33.50;29.25;;;;;;;;4107572;22;51913;-50
2022/02/15 10:12:37;;;;;;;;;31.75;24.50;;;;;;;;5042196;28;51182;-52
2022/02/15 10:15:27;;;;;;;;;32.75;25.25;;;;;;;;5040718;28;51213;-54
2022/02/15 10:18:12;;;;;;;;;23.50;23.50;;;;;;;;5040900;28;51194;-51
2022/02/15 10:20:57;;;;;;;;;33.25;25.25;;;;;;;;5043360;28;51115;-55
2022/02/15 10:23:41;;;;;;;;;30.75;24.75;;;;;;;;5041283;28;51326;-49
2022/02/15 10:26:28;;;;;;;;;33.75;26.25;;;;;;;;5045432;28;51095;-53
2022/02/15 10:29:22;;;;;;;;;30.25;26.50;;;;;;;;5047268;28;51782;-50
2022/02/15 10:32:20;;;;;;;;;27.75;26.50;;;;;;;;5049938;28;51145;-52
2022/02/15 10:35:04;;;;;;;;;25.50;21.50;;;;;;;;5044540;28;51155;-53
2022/02/15 10:37:53;;;;;;;;;33.75;23.50;;;;;;;;5048763;28;51104;-52
2022/02/15 10:40:37;;;;;;;;;30.25;24.50;;;;;;;;5047386;28;51160;-50
2022/02/15 10:43:22;;;;;;;;;27.50;24.50;;;;;;;;5048651;28;51174;-51
2022/02/15 10:46:25;;;;;;;;;29.75;25.50;;;;;;;;5053618;28;51256;-53
2022/02/15 10:49:09;;;;;;;;;34.75;28.25;;;;;;;;5048856;28;51249;-53
2022/02/15 10:51:55;;;;;;;;;33.00;26.25;;;;;;;;5057646;28;51180;-51
2022/02/15 10:54:40;;;;;;;;;31.75;26.50;;;;;;;;5039664;28;51265;-54
2022/02/15 10:57:24;;;;;;;;;28.75;23.75;;;;;;;;5046949;28;51108;-54
2022/02/15 11:00:12;;;;;;;;;31.75;26.75;;;;;;;;5054135;28;51010;-50
2022/02/15 11:02:59;;;;;;;;;28.50;25.50;;;;;;;;5047034;28;51433;-55
2022/02/15 11:05:45;;;;;;;;;22.00;22.00;;;;;;;;5050368;28;51654;-53
2022/02/15 11:08:32;;;;;;;;;28.50;23.25;;;;;;;;5047221;28;52263;-52
2022/02/15 11:11:21;;;;;;;;;30.50;25.00;;;;;;;;5046567;28;51177;-54
2022/02/15 11:14:05;;;;;;;;;25.25;22.50;;;;;;;;5050594;28;51220;-53
2022/02/15 11:16:56;;;;;;;;;30.50;27.00;;;;;;;;5048027;28;51345;-52
2022/02/15 11:19:59;;;;;;;;;28.50;27.25;;;;;;;;5038100;28;51584;-53
2022/02/15 11:22:55;;;;;;;;;24.50;23.00;;;;;;;;5049984;28;51232;-52
2022/02/15 11:25:39;;;;;;;;;33.50;30.25;;;;;;;;5054373;27;51221;-54
2022/02/15 11:28:25;;;;;;;;;34.50;27.75;;;;;;;;5045174;28;51504;-54
2022/02/15 11:31:09;;;;;;;;;28.25;25.50;;;;;;;;5047111;28;51605;-50
2022/02/15 11:34:02;;;;;;;;;32.75;26.00;;;;;;;;5043578;28;51590;-50
2022/02/15 11:36:47;;;;;;;;;28.50;26.50;;;;;;;;5049220;28;51083;-50
2022/02/15 11:39:33;;;;;;;;;32.25;22.50;;;;;;;;5046336;28;51166;-49
2022/02/15 11:42:17;;;;;;;;;32.75;24.25;;;;;;;;5043956;28;51162;-54
2022/02/15 11:45:12;;;;;;;;;27.50;24.00;;;;;;;;5047277;28;51131;-52
2022/02/15 11:48:06;;;;;;;;;30.25;24.75;;;;;;;;5048485;28;51239;-54
2022/02/15 11:50:52;;;;;;;;;28.75;22.50;;;;;;;;5032534;28;51069;-51
2022/02/15 11:53:36;;;;;;;;;20.25;18.25;;;;;;;;5043306;28;51526;-52
2022/02/15 11:56:21;;;;;;;;;26.50;24.25;;;;;;;;5048537;28;51156;-51
2022/02/15 11:59:15;;;;;;;;;28.25;24.75;;;;;;;;5040380;28;51181;-51
2022/02/15 12:02:01;;;;;;;;;33.50;25.50;;;;;;;;5046773;28;51239;-56
2022/02/15 12:05:07;;;;;;;;;27.00;22.75;;;;;;;;5050519;28;51562;-57
2022/02/15 12:07:52;;;;;;;;;31.25;25.00;;;;;;;;5042924;28;51176;-54
2022/02/15 12:10:50;;;;;;;;;40.50;24.25;;;;;;;;5047639;28;51139;-53
2022/02/15 12:13:36;;;;;;;;;31.00;24.50;;;;;;;;5052938;28;51281;-52
2022/02/15 12:16:28;;;;;;;;;26.75;21.75;;;;;;;;5046894;28;51166;-54
2022/02/15 12:19:30;;;;;;;;;29.75;23.50;;;;;;;;5049945;28;51322;-53
2022/02/15 12:22:15;;;;;;;;;28.75;27.50;;;;;;;;5048674;28;52026;-55
2022/02/15 12:25:01;;;;;;;;;31.75;27.25;;;;;;;;5047902;28;51155;-54
2022/02/15 12:27:47;;;;;;;;;28.50;25.25;;;;;;;;5034383;28;51147;-49
2022/02/15 12:30:32;;;;;;;;;31.75;26.50;;;;;;;;5048139;28;51101;-52
2022/02/15 12:33:20;;;;;;;;;37.25;30.00;;;;;;;;5052609;28;51161;-53
2022/02/15 12:36:06;;;;;;;;;30.75;26.75;;;;;;;;5052490;28;51630;-52
2022/02/15 12:38:58;;;;;;;;;33.00;24.50;;;;;;;;5047371;28;51308;-54
2022/02/15 12:42:05;;;;;;;;;27.00;24.00;;;;;;;;5054017;28;51067;-49
2022/02/15 12:45:06;;;;;;;;;30.25;24.75;;;;;;;;5049049;28;51133;-55
2022/02/15 12:47:50;;;;;;;;;32.00;27.00;;;;;;;;5051285;28;51139;-54
2022/02/15 12:50:48;;;;;;;;;30.00;28.25;;;;;;;;5049516;28;51244;-53
2022/02/15 12:53:34;;;;;;;;;28.50;25.25;;;;;;;;5053175;28;51158;-50
2022/02/15 12:56:21;;;;;;;;;25.00;20.75;;;;;;;;5048770;28;51171;-54
2022/02/15 12:59:09;;;;;;;;;30.00;25.00;;;;;;;;5047267;28;51058;-50
2022/02/15 13:01:58;;;;;;;;;27.25;25.75;;;;;;;;5044318;28;51497;-50
2022/02/15 13:04:49;;;;;;;;;24.75;23.50;;;;;;;;5053862;28;51201;-52
2022/02/15 13:07:43;;;;;;;;;31.75;25.25;;;;;;;;5050385;28;51115;-53
2022/02/15 13:10:28;;;;;;;;;32.25;26.50;;;;;;;;5048489;28;51550;-53
2022/02/15 13:13:13;;;;;;;;;24.50;24.00;;;;;;;;5056345;28;51532;-52
2022/02/15 13:16:50;;;;;;;;;27.25;24.50;;;;;;;;5043938;28;51179;-48
2022/02/15 13:19:39;;;;;;;;;27.25;23.50;;;;;;;;5022943;28;51137;-55
2022/02/15 13:22:24;;;;;;;;;28.75;25.50;;;;;;;;5041392;28;51213;-49
2022/02/15 13:25:08;;;;;;;;;29.00;23.25;;;;;;;;5050591;28;50980;-51
2022/02/15 13:27:54;;;;;;;;;27.50;26.75;;;;;;;;5046939;28;51637;-52
2022/02/15 13:30:42;;;;;;;;;23.25;20.75;;;;;;;;5043526;28;51197;-51
2022/02/15 13:33:39;;;;;;;;;28.50;25.50;;;;;;;;5029673;28;51347;-51
2022/02/15 13:36:31;;;;;;;;;26.00;22.50;;;;;;;;5042285;28;51170;-52
2022/02/15 13:39:17;;;;;;;;;28.25;25.50;;;;;;;;5039253;28;51370;-50
2022/02/15 13:42:02;;;;;;;;;28.75;27.00;;;;;;;;5043711;28;51235;-53
2022/02/15 13:44:47;;;;;;;;;27.25;24.25;;;;;;;;5044329;28;51245;-48
2022/02/15 13:47:32;;;;;;;;;32.00;24.50;;;;;;;;5038955;28;51013;-52
2022/02/15 13:50:20;;;;;;;;;29.50;24.00;;;;;;;;5041962;28;51139;-52
2022/02/15 13:53:05;;;;;;;;;31.25;27.00;;;;;;;;5042190;28;51479;-51
2022/02/15 13:55:50;;;;;;;;;27.75;25.50;;;;;;;;5059181;28;51109;-53
2022/02/15 13:58:38;;;;;;;;;26.75;22.75;;;;;;;;5037769;28;51138;-51
2022/02/15 14:01:23;;;;;;;;;23.00;21.25;;;;;;;;5046609;28;51091;-52
2022/02/15 14:04:24;;;;;;;;;32.00;25.00;;;;;;;;5041316;28;51440;-51
2022/02/15 14:07:12;;;;;;;;;26.50;23.25;;;;;;;;5049102;28;51023;-49
2022/02/15 14:10:03;;;;;;;;;29.75;21.50;;;;;;;;5034739;28;51220;-51
2022/02/15 14:12:53;;;;;;;;;29.25;25.50;;;;;;;;5053975;28;51363;-49
2022/02/15 14:15:44;;;;;;;;;28.50;26.00;;;;;;;;5040397;28;51201;-49
2022/02/15 14:18:39;;;;;;;;;21.00;18.75;;;;;;;;5043427;28;51662;-53
2022/02/15 14:21:23;;;;;;;;;27.25;25.50;;;;;;;;5044926;28;51204;-52
2022/02/15 14:24:08;;;;;;;;;34.25;25.50;;;;;;;;5037952;28;51228;-52
2022/02/15 14:26:53;;;;;;;;;28.75;25.50;;;;;;;;5048640;28;52429;-48
2022/02/15 14:29:46;;;;;;;;;26.75;25.00;;;;;;;;5045625;28;51614;-49
2022/02/15 14:32:47;;;;;;;;;27.75;23.25;;;;;;;;5035957;28;51174;-48
2022/02/15 14:35:32;;;;;;;;;27.75;24.00;;;;;;;;5039198;28;51162;-52
2022/02/15 14:38:19;;;;;;;;;30.25;24.75;;;;;;;;5035986;28;51099;-51
2022/02/15 14:41:03;;;;;;;;;31.50;27.25;;;;;;;;5044981;28;51175;-51
2022/02/15 14:43:48;;;;;;;;;31.50;23.50;;;;;;;;5023364;28;51458;-53
2022/02/15 14:46:32;;;;;;;;;36.25;29.75;;;;;;;;5040331;28;51104;-53
2022/02/15 14:49:21;;;;;;;;;27.50;23.25;;;;;;;;5041345;28;51244;-50
2022/02/15 14:52:09;;;;;;;;;29.00;25.50;;;;;;;;5038189;28;51198;-53
2022/02/15 14:55:07;;;;;;;;;28.50;26.25;;;;;;;;5040368;28;51209;-52
2022/02/15 14:58:11;;;;;;;;;33.50;26.00;;;;;;;;5044657;28;51065;-49
2022/02/15 15:00:59;;;;;;;;;28.50;25.75;;;;;;;;5039782;28;51123;-52
2022/02/15 15:03:46;;;;;;;;;28.75;25.50;;;;;;;;5037806;28;51455;-47
2022/02/15 15:06:33;;;;;;;;;28.50;23.50;;;;;;;;5043284;28;51117;-53
2022/02/15 15:09:21;;;;;;;;;26.25;23.00;;;;;;;;5048858;28;51130;-53
2022/02/15 15:12:08;;;;;;;;;28.75;25.00;;;;;;;;5040122;28;51203;-47
2022/02/15 15:14:54;;;;;;;;;37.75;30.75;;;;;;;;5032633;28;51084;-50
2022/02/15 15:17:46;;;;;;;;;36.50;26.25;;;;;;;;5054223;28;51168;-50
2022/02/15 15:20:33;;;;;;;;;30.75;25.50;;;;;;;;5040433;28;51102;-51
2022/02/15 15:23:17;;;;;;;;;37.25;26.00;;;;;;;;5053975;28;51141;-49
2022/02/15 15:26:03;;;;;;;;;31.00;27.75;;;;;;;;5058216;28;51086;-53
2022/02/15 15:29:00;;;;;;;;;33.50;28.75;;;;;;;;5049816;28;51324;-53
2022/02/15 15:31:47;;;;;;;;;35.50;28.50;;;;;;;;5041069;28;51177;-52
2022/02/15 15:34:52;;;;;;;;;30.50;26.25;;;;;;;;5046876;28;51747;-49
2022/02/15 15:37:37;;;;;;;;;33.25;26.50;;;;;;;;5041390;28;51203;-50
2022/02/15 15:40:26;;;;;;;;;35.25;28.25;;;;;;;;5047755;28;51441;-51
2022/02/15 15:43:11;;;;;;;;;38.00;29.50;;;;;;;;5060078;28;51012;-50
2022/02/15 15:46:00;;;;;;;;;35.25;27.00;;;;;;;;5045305;28;51568;-48
2022/02/15 15:49:06;;;;;;;;;25.25;22.75;;;;;;;;5040705;28;51084;-52
2022/02/15 15:51:52;;;;;;;;;29.50;27.00;;;;;;;;5046950;28;50964;-50
2022/02/15 15:54:45;;;;;;;;;30.50;24.00;;;;;;;;5059055;28;51431;-48
2022/02/15 15:57:35;;;;;;;;;26.00;19.50;;;;;;;;5039995;28;51248;-50
2022/02/15 16:00:20;;;;;;;;;30.25;22.75;;;;;;;;5061160;28;51125;-50
2022/02/15 16:03:06;;;;;;;;;32.00;28.00;;;;;;;;5056833;28;51086;-49
2022/02/15 16:06:02;;;;;;;;;38.50;27.25;;;;;;;;5043168;28;51856;-53
2022/02/15 16:08:47;;;;;;;;;26.50;26.50;;;;;;;;5055458;28;51256;-51
2022/02/15 16:11:31;;;;;;;;;29.75;23.25;;;;;;;;5051846;28;51650;-49
2022/02/15 16:14:26;;;;;;;;;37.00;29.50;;;;;;;;5055678;28;51135;-52
2022/02/15 16:17:16;;;;;;;;;26.25;26.00;;;;;;;;5046390;28;51036;-53
2022/02/15 16:20:03;;;;;;;;;27.25;22.50;;;;;;;;5040395;28;51416;-50
2022/02/15 16:22:48;;;;;;;;;24.25;21.75;;;;;;;;5041280;28;51046;-53
2022/02/15 16:25:32;;;;;;;;;21.25;15.25;;;;;;;;5043395;28;51432;-54